Time,TemperatureF,DewpointF,PressureIn,WindDirection,WindDirectionDegrees,WindSpeedMPH,WindSpeedGustMPH,Humidity,HourlyPrecipIn,Conditions,Clouds,dailyrainin,SolarRadiationWatts/m^2,SoftwareType,DateUTC
2013-11-22 00:02:00,13.0,10.0,-100.00,NNE,30,0.0,3.0,86,0.00,,,0.00,0.000000,,2013-11-22 07:02:00,
2013-11-22 00:12:00,13.0,10.0,-100.00,NNE,30,0.0,3.0,86,0.00,,,0.00,0.000000,,2013-11-22 07:12:00,
2013-11-22 00:21:00,13.0,10.0,-100.00,NNE,30,0.0,3.0,86,0.00,,,0.00,0.000000,,2013-11-22 07:21:00,
2013-11-22 00:52:00,12.0,10.0,-100.00,East,100,0.0,0.0,92,0.00,,,0.00,0.000000,,2013-11-22 07:52:00,
2013-11-22 01:01:00,12.0,10.0,-100.00,East,100,0.0,0.0,92,0.00,,,0.00,0.000000,,2013-11-22 08:01:00,
2013-11-22 01:11:00,12.0,10.0,-100.00,East,100,0.0,0.0,92,0.00,,,0.00,0.000000,,2013-11-22 08:11:00,
2013-11-22 01:21:00,12.0,10.0,-100.00,East,100,0.0,0.0,92,0.00,,,0.00,0.000000,,2013-11-22 08:21:00,
2013-11-22 01:52:00,11.0,10.0,-100.00,North,8,0.0,0.0,95,0.00,,,0.00,0.000000,,2013-11-22 08:52:00,
2013-11-22 02:02:00,11.0,10.0,-100.00,North,8,0.0,0.0,95,0.00,,,0.00,0.000000,,2013-11-22 09:02:00,
2013-11-22 02:11:00,11.0,10.0,-100.00,North,8,0.0,0.0,95,0.00,,,0.00,0.000000,,2013-11-22 09:11:00,
2013-11-22 02:21:00,11.0,10.0,-100.00,North,8,0.0,0.0,95,0.00,,,0.00,0.000000,,2013-11-22 09:21:00,
2013-11-22 02:53:00,11.0,10.0,-100.00,ESE,105,0.0,2.0,97,0.00,,,0.00,0.000000,,2013-11-22 09:53:00,
2013-11-22 03:03:00,11.0,10.0,-100.00,ESE,105,0.0,2.0,97,0.00,,,0.00,0.000000,,2013-11-22 10:03:00,
2013-11-22 03:13:00,11.0,10.0,-100.00,ESE,105,0.0,2.0,97,0.00,,,0.00,0.000000,,2013-11-22 10:13:00,
2013-11-22 03:23:00,11.0,10.0,-100.00,ESE,105,0.0,2.0,97,0.00,,,0.00,0.000000,,2013-11-22 10:23:00,
2013-11-22 03:53:00,10.0,10.0,-100.00,East,86,0.0,0.0,99,0.00,,,0.00,0.000000,,2013-11-22 10:53:00,
2013-11-22 04:02:00,10.0,10.0,-100.00,East,86,0.0,0.0,99,0.00,,,0.00,0.000000,,2013-11-22 11:02:00,
2013-11-22 04:12:00,10.0,10.0,-100.00,East,86,0.0,0.0,99,0.00,,,0.00,0.000000,,2013-11-22 11:12:00,
2013-11-22 04:22:00,10.0,10.0,-100.00,East,86,0.0,0.0,99,0.00,,,0.00,0.000000,,2013-11-22 11:22:00,
2013-11-22 04:52:00,9.0,9.0,-100.00,NNE,15,0.0,0.0,99,0.00,,,0.00,0.000000,,2013-11-22 11:52:00,
2013-11-22 05:02:00,9.0,9.0,-100.00,NNE,15,0.0,0.0,99,0.00,,,0.00,0.000000,,2013-11-22 12:02:00,
2013-11-22 05:12:00,9.0,9.0,-100.00,NNE,15,0.0,0.0,99,0.00,,,0.00,0.000000,,2013-11-22 12:12:00,
2013-11-22 05:21:00,9.0,9.0,-100.00,NNE,15,0.0,0.0,99,0.00,,,0.00,0.000000,,2013-11-22 12:21:00,
2013-11-22 05:52:00,9.0,9.0,-100.00,SSE,163,0.0,0.0,98,0.00,,,0.00,0.000000,,2013-11-22 12:52:00,
2013-11-22 06:01:00,9.0,9.0,-100.00,SSE,163,0.0,0.0,98,0.00,,,0.00,0.000000,,2013-11-22 13:01:00,
2013-11-22 06:11:00,9.0,9.0,-100.00,SSE,163,0.0,0.0,98,0.00,,,0.00,0.000000,,2013-11-22 13:11:00,
2013-11-22 06:22:00,9.0,9.0,-100.00,SSE,163,0.0,0.0,98,0.00,,,0.00,0.000000,,2013-11-22 13:22:00,
2013-11-22 06:52:00,8.0,8.0,-100.00,East,79,0.0,0.0,99,0.00,,,0.00,0.000000,,2013-11-22 13:52:00,
2013-11-22 07:02:00,8.0,8.0,-100.00,East,79,0.0,0.0,99,0.00,,,0.00,0.000000,,2013-11-22 14:02:00,
2013-11-22 07:11:00,8.0,8.0,-100.00,East,79,0.0,0.0,99,0.00,,,0.00,0.000000,,2013-11-22 14:11:00,
2013-11-22 07:22:00,8.0,8.0,-100.00,East,79,0.0,0.0,99,0.00,,,0.00,0.000000,,2013-11-22 14:22:00,
2013-11-22 07:52:00,8.0,7.0,-100.00,NW,308,0.0,0.0,97,0.00,,,0.00,0.000000,,2013-11-22 14:52:00,
2013-11-22 08:02:00,8.0,7.0,-100.00,NW,308,0.0,0.0,97,0.00,,,0.00,0.000000,,2013-11-22 15:02:00,
2013-11-22 08:11:00,8.0,7.0,-100.00,NW,308,0.0,0.0,97,0.00,,,0.00,0.000000,,2013-11-22 15:11:00,
2013-11-22 08:22:00,8.0,7.0,-100.00,NW,308,0.0,0.0,97,0.00,,,0.00,0.000000,,2013-11-22 15:22:00,
2013-11-22 08:54:00,8.0,7.0,-100.00,North,351,0.0,0.0,95,0.00,,,0.00,1.000000,,2013-11-22 15:54:00,
2013-11-22 09:03:00,8.0,7.0,-100.00,North,351,0.0,0.0,95,0.00,,,0.00,1.000000,,2013-11-22 16:03:00,
2013-11-22 09:13:00,8.0,7.0,-100.00,North,351,0.0,0.0,95,0.00,,,0.00,1.000000,,2013-11-22 16:13:00,
2013-11-22 09:23:00,8.0,7.0,-100.00,North,351,0.0,0.0,95,0.00,,,0.00,1.000000,,2013-11-22 16:23:00,
2013-11-22 09:53:00,9.0,8.0,-100.00,East,88,0.0,0.0,95,0.00,,,0.00,14.000000,,2013-11-22 16:53:00,
2013-11-22 10:03:00,9.0,8.0,-100.00,East,88,0.0,0.0,95,0.00,,,0.00,14.000000,,2013-11-22 17:03:00,
2013-11-22 10:12:00,9.0,8.0,-100.00,East,88,0.0,0.0,95,0.00,,,0.00,14.000000,,2013-11-22 17:12:00,
2013-11-22 10:22:00,9.0,8.0,-100.00,East,88,0.0,0.0,95,0.00,,,0.00,14.000000,,2013-11-22 17:22:00,
2013-11-22 10:52:00,18.0,10.0,-100.00,West,270,0.0,0.0,70,0.00,,,0.00,244.000000,,2013-11-22 17:52:00,
2013-11-22 11:02:00,18.0,10.0,-100.00,West,270,0.0,0.0,70,0.00,,,0.00,244.000000,,2013-11-22 18:02:00,
2013-11-22 11:12:00,18.0,10.0,-100.00,West,270,0.0,0.0,70,0.00,,,0.00,244.000000,,2013-11-22 18:12:00,
2013-11-22 11:21:00,18.0,10.0,-100.00,West,270,0.0,0.0,70,0.00,,,0.00,244.000000,,2013-11-22 18:21:00,
2013-11-22 11:52:00,21.0,12.0,-100.00,West,275,2.0,0.0,68,0.00,,,0.00,354.000000,,2013-11-22 18:52:00,
2013-11-22 12:01:00,21.0,12.0,-100.00,West,275,2.0,0.0,68,0.00,,,0.00,354.000000,,2013-11-22 19:01:00,
2013-11-22 12:11:00,21.0,12.0,-100.00,West,275,2.0,0.0,68,0.00,,,0.00,354.000000,,2013-11-22 19:11:00,
2013-11-22 12:21:00,21.0,12.0,-100.00,West,275,2.0,0.0,68,0.00,,,0.00,354.000000,,2013-11-22 19:21:00,
2013-11-22 12:52:00,27.0,14.0,-100.00,WNW,286,2.0,6.0,57,0.00,,,0.00,413.000000,,2013-11-22 19:52:00,
2013-11-22 13:01:00,27.0,14.0,-100.00,WNW,286,2.0,6.0,57,0.00,,,0.00,413.000000,,2013-11-22 20:01:00,
2013-11-22 13:11:00,27.0,14.0,-100.00,WNW,286,2.0,6.0,57,0.00,,,0.00,413.000000,,2013-11-22 20:11:00,
2013-11-22 13:21:00,27.0,14.0,-100.00,WNW,286,2.0,6.0,57,0.00,,,0.00,413.000000,,2013-11-22 20:21:00,
2013-11-22 13:52:00,32.0,12.0,-100.00,WNW,294,4.0,5.0,42,0.00,,,0.00,444.000000,,2013-11-22 20:52:00,
2013-11-22 14:02:00,32.0,12.0,-100.00,WNW,294,4.0,5.0,42,0.00,,,0.00,444.000000,,2013-11-22 21:02:00,
2013-11-22 14:11:00,32.0,12.0,-100.00,WNW,294,4.0,5.0,42,0.00,,,0.00,444.000000,,2013-11-22 21:11:00,
2013-11-22 14:21:00,32.0,12.0,-100.00,WNW,294,4.0,5.0,42,0.00,,,0.00,444.000000,,2013-11-22 21:21:00,
2013-11-22 14:53:00,33.0,9.0,-100.00,WNW,284,5.0,7.0,36,0.00,,,0.00,411.000000,,2013-11-22 21:53:00,
2013-11-22 15:03:00,33.0,9.0,-100.00,WNW,284,5.0,7.0,36,0.00,,,0.00,411.000000,,2013-11-22 22:03:00,
2013-11-22 15:13:00,33.0,9.0,-100.00,WNW,284,5.0,7.0,36,0.00,,,0.00,411.000000,,2013-11-22 22:13:00,
2013-11-22 15:23:00,33.0,9.0,-100.00,WNW,284,5.0,7.0,36,0.00,,,0.00,411.000000,,2013-11-22 22:23:00,
2013-11-22 15:53:00,37.0,7.0,-100.00,WNW,284,4.0,9.0,28,0.00,,,0.00,326.000000,,2013-11-22 22:53:00,
2013-11-22 16:02:00,37.0,7.0,-100.00,WNW,284,4.0,9.0,28,0.00,,,0.00,326.000000,,2013-11-22 23:02:00,
2013-11-22 16:12:00,37.0,7.0,-100.00,WNW,284,4.0,9.0,28,0.00,,,0.00,326.000000,,2013-11-22 23:12:00,
2013-11-22 16:22:00,37.0,7.0,-100.00,WNW,284,4.0,9.0,28,0.00,,,0.00,326.000000,,2013-11-22 23:22:00,
2013-11-22 16:53:00,34.0,10.0,-100.00,SW,230,0.0,7.0,36,0.00,,,0.00,170.000000,,2013-11-22 23:53:00,
2013-11-22 17:02:00,34.0,10.0,-100.00,SW,230,0.0,7.0,36,0.00,,,0.00,170.000000,,2013-11-23 00:02:00,
2013-11-22 17:11:00,34.0,10.0,-100.00,SW,230,0.0,7.0,36,0.00,,,0.00,170.000000,,2013-11-23 00:11:00,
2013-11-22 17:21:00,34.0,10.0,-100.00,SW,230,0.0,7.0,36,0.00,,,0.00,170.000000,,2013-11-23 00:21:00,
2013-11-22 17:52:00,29.0,12.0,-100.00,North,349,0.0,6.0,48,0.00,,,0.00,9.000000,,2013-11-23 00:52:00,
2013-11-22 18:02:00,29.0,12.0,-100.00,North,349,0.0,6.0,48,0.00,,,0.00,9.000000,,2013-11-23 01:02:00,
2013-11-22 18:11:00,29.0,12.0,-100.00,North,349,0.0,6.0,48,0.00,,,0.00,9.000000,,2013-11-23 01:11:00,
2013-11-22 18:21:00,29.0,12.0,-100.00,North,349,0.0,6.0,48,0.00,,,0.00,9.000000,,2013-11-23 01:21:00,
2013-11-22 18:52:00,26.0,14.0,-100.00,East,90,0.0,3.0,59,0.00,,,0.00,0.000000,,2013-11-23 01:52:00,
2013-11-22 19:02:00,26.0,14.0,-100.00,East,90,0.0,3.0,59,0.00,,,0.00,0.000000,,2013-11-23 02:02:00,
2013-11-22 19:11:00,26.0,14.0,-100.00,East,90,0.0,3.0,59,0.00,,,0.00,0.000000,,2013-11-23 02:11:00,
2013-11-22 19:22:00,26.0,14.0,-100.00,East,90,0.0,3.0,59,0.00,,,0.00,0.000000,,2013-11-23 02:22:00,
2013-11-22 19:53:00,24.0,14.0,-100.00,WSW,250,0.0,0.0,66,0.00,,,0.00,0.000000,,2013-11-23 02:53:00,
2013-11-22 20:02:00,24.0,14.0,-100.00,WSW,250,0.0,0.0,66,0.00,,,0.00,0.000000,,2013-11-23 03:02:00,
2013-11-22 20:11:00,24.0,14.0,-100.00,WSW,250,0.0,0.0,66,0.00,,,0.00,0.000000,,2013-11-23 03:11:00,
2013-11-22 20:22:00,24.0,14.0,-100.00,WSW,250,0.0,0.0,66,0.00,,,0.00,0.000000,,2013-11-23 03:22:00,
2013-11-22 20:53:00,22.0,14.0,-100.00,East,80,0.0,0.0,72,0.00,,,-99.99,0.000000,,2013-11-23 03:53:00,
2013-11-22 21:02:00,22.0,14.0,-100.00,East,80,0.0,0.0,72,0.00,,,-99.99,0.000000,,2013-11-23 04:02:00,
2013-11-22 21:13:00,22.0,14.0,-100.00,East,80,0.0,0.0,72,0.00,,,-99.99,0.000000,,2013-11-23 04:13:00,
2013-11-22 21:23:00,22.0,14.0,-100.00,East,80,0.0,0.0,72,0.00,,,-99.99,0.000000,,2013-11-23 04:23:00,
2013-11-22 21:53:00,20.0,15.0,-100.00,ENE,66,0.0,3.0,79,0.00,,,0.00,0.000000,,2013-11-23 04:53:00,
2013-11-22 22:03:00,20.0,15.0,-100.00,ENE,66,0.0,3.0,79,0.00,,,0.00,0.000000,,2013-11-23 05:03:00,
2013-11-22 22:12:00,20.0,15.0,-100.00,ENE,66,0.0,3.0,79,0.00,,,0.00,0.000000,,2013-11-23 05:12:00,
2013-11-22 22:22:00,20.0,15.0,-100.00,ENE,66,0.0,3.0,79,0.00,,,0.00,0.000000,,2013-11-23 05:22:00,
2013-11-22 22:53:00,19.0,14.0,-100.00,NW,315,0.0,0.0,80,0.00,,,0.00,0.000000,,2013-11-23 05:53:00,
2013-11-22 23:02:00,19.0,14.0,-100.00,NW,315,0.0,0.0,80,0.00,,,0.00,0.000000,,2013-11-23 06:02:00,
2013-11-22 23:12:00,19.0,14.0,-100.00,NW,315,0.0,0.0,80,0.00,,,0.00,0.000000,,2013-11-23 06:12:00,
2013-11-22 23:22:00,19.0,14.0,-100.00,NW,315,0.0,0.0,80,0.00,,,0.00,0.000000,,2013-11-23 06:22:00,
2013-11-22 23:52:00,17.0,14.0,-100.00,NE,38,0.0,3.0,87,0.00,,,0.00,0.000000,,2013-11-23 06:52:00,